sensor_id;sensor_type;location;lat;lon;timestamp;P1;durP1;ratioP1;P2;durP2;ratioP2
21091;SDS011;10704;42.678;23.288;2022-11-30T00:01:16;9.60;;;5.28;;
21091;SDS011;10704;42.678;23.288;2022-11-30T00:03:44;10.05;;;5.25;;
21091;SDS011;10704;42.678;23.288;2022-11-30T00:06:11;9.30;;;5.55;;
21091;SDS011;10704;42.678;23.288;2022-11-30T00:08:39;11.15;;;5.63;;
21091;SDS011;10704;42.678;23.288;2022-11-30T00:11:09;8.98;;;5.25;;
21091;SDS011;10704;42.678;23.288;2022-11-30T00:13:36;11.10;;;5.60;;
21091;SDS011;10704;42.678;23.288;2022-11-30T00:16:02;10.50;;;5.82;;
21091;SDS011;10704;42.678;23.288;2022-11-30T00:18:28;10.73;;;5.40;;
21091;SDS011;10704;42.678;23.288;2022-11-30T00:20:57;9.10;;;5.78;;
21091;SDS011;10704;42.678;23.288;2022-11-30T00:23:25;10.50;;;5.90;;
21091;SDS011;10704;42.678;23.288;2022-11-30T00:25:51;11.95;;;6.18;;
21091;SDS011;10704;42.678;23.288;2022-11-30T00:28:17;10.90;;;5.93;;
21091;SDS011;10704;42.678;23.288;2022-11-30T00:30:42;10.25;;;5.93;;
21091;SDS011;10704;42.678;23.288;2022-11-30T00:33:08;9.73;;;5.93;;
21091;SDS011;10704;42.678;23.288;2022-11-30T00:35:34;8.32;;;5.75;;
21091;SDS011;10704;42.678;23.288;2022-11-30T00:38:02;12.82;;;7.65;;
21091;SDS011;10704;42.678;23.288;2022-11-30T00:40:28;10.05;;;5.95;;
21091;SDS011;10704;42.678;23.288;2022-11-30T00:42:54;11.13;;;5.93;;
21091;SDS011;10704;42.678;23.288;2022-11-30T00:45:20;10.52;;;5.75;;
21091;SDS011;10704;42.678;23.288;2022-11-30T00:47:46;10.57;;;5.38;;
21091;SDS011;10704;42.678;23.288;2022-11-30T00:50:12;9.05;;;5.53;;
21091;SDS011;10704;42.678;23.288;2022-11-30T00:52:37;10.20;;;6.00;;
21091;SDS011;10704;42.678;23.288;2022-11-30T00:55:03;12.57;;;5.53;;
21091;SDS011;10704;42.678;23.288;2022-11-30T00:57:29;10.23;;;6.30;;
21091;SDS011;10704;42.678;23.288;2022-11-30T00:59:55;9.05;;;5.60;;
21091;SDS011;10704;42.678;23.288;2022-11-30T01:02:21;12.10;;;5.63;;
21091;SDS011;10704;42.678;23.288;2022-11-30T01:04:47;10.52;;;6.07;;
21091;SDS011;10704;42.678;23.288;2022-11-30T01:07:12;10.13;;;5.03;;
21091;SDS011;10704;42.678;23.288;2022-11-30T01:09:38;10.77;;;5.53;;
21091;SDS011;10704;42.678;23.288;2022-11-30T01:12:04;9.07;;;5.32;;
21091;SDS011;10704;42.678;23.288;2022-11-30T01:18:18;6.43;;;3.60;;
21091;SDS011;10704;42.678;23.288;2022-11-30T01:24:31;5.55;;;3.00;;
21091;SDS011;10704;42.678;23.288;2022-11-30T01:26:56;6.03;;;3.03;;
21091;SDS011;10704;42.678;23.288;2022-11-30T01:29:22;4.93;;;2.83;;
21091;SDS011;10704;42.678;23.288;2022-11-30T01:31:48;5.45;;;2.60;;
21091;SDS011;10704;42.678;23.288;2022-11-30T01:34:14;4.85;;;2.42;;
21091;SDS011;10704;42.678;23.288;2022-11-30T01:36:39;5.50;;;2.70;;
21091;SDS011;10704;42.678;23.288;2022-11-30T01:39:07;4.97;;;2.45;;
21091;SDS011;10704;42.678;23.288;2022-11-30T01:41:34;5.25;;;2.35;;
21091;SDS011;10704;42.678;23.288;2022-11-30T01:54:13;6.88;;;3.75;;
21091;SDS011;10704;42.678;23.288;2022-11-30T01:57:03;6.43;;;3.75;;
21091;SDS011;10704;42.678;23.288;2022-11-30T01:59:29;6.13;;;3.83;;
21091;SDS011;10704;42.678;23.288;2022-11-30T02:01:56;9.00;;;4.05;;
21091;SDS011;10704;42.678;23.288;2022-11-30T02:04:23;7.70;;;4.47;;
21091;SDS011;10704;42.678;23.288;2022-11-30T02:06:54;7.13;;;4.60;;
21091;SDS011;10704;42.678;23.288;2022-11-30T02:09:21;8.55;;;5.20;;
21091;SDS011;10704;42.678;23.288;2022-11-30T02:11:48;9.95;;;6.00;;
21091;SDS011;10704;42.678;23.288;2022-11-30T02:20:25;10.25;;;6.50;;
21091;SDS011;10704;42.678;23.288;2022-11-30T02:28:56;9.82;;;6.93;;
21091;SDS011;10704;42.678;23.288;2022-11-30T02:31:28;9.68;;;6.25;;
21091;SDS011;10704;42.678;23.288;2022-11-30T02:34:13;9.75;;;6.72;;
21091;SDS011;10704;42.678;23.288;2022-11-30T02:36:41;10.70;;;6.75;;
21091;SDS011;10704;42.678;23.288;2022-11-30T02:39:10;9.30;;;6.45;;
21091;SDS011;10704;42.678;23.288;2022-11-30T02:41:37;9.60;;;6.32;;
21091;SDS011;10704;42.678;23.288;2022-11-30T02:44:03;10.13;;;6.03;;
21091;SDS011;10704;42.678;23.288;2022-11-30T02:46:34;9.80;;;6.43;;
21091;SDS011;10704;42.678;23.288;2022-11-30T02:49:16;10.35;;;7.13;;
21091;SDS011;10704;42.678;23.288;2022-11-30T02:52:02;12.75;;;7.05;;
21091;SDS011;10704;42.678;23.288;2022-11-30T02:54:30;13.88;;;6.88;;
21091;SDS011;10704;42.678;23.288;2022-11-30T02:56:57;11.15;;;6.95;;
21091;SDS011;10704;42.678;23.288;2022-11-30T02:59:23;13.80;;;7.68;;
21091;SDS011;10704;42.678;23.288;2022-11-30T03:01:48;16.63;;;8.35;;
21091;SDS011;10704;42.678;23.288;2022-11-30T03:04:14;14.45;;;7.07;;
21091;SDS011;10704;42.678;23.288;2022-11-30T03:06:40;13.50;;;7.72;;
21091;SDS011;10704;42.678;23.288;2022-11-30T03:09:06;8.93;;;5.88;;
21091;SDS011;10704;42.678;23.288;2022-11-30T03:11:32;10.63;;;6.65;;
21091;SDS011;10704;42.678;23.288;2022-11-30T03:13:58;10.02;;;6.13;;
21091;SDS011;10704;42.678;23.288;2022-11-30T03:16:24;10.50;;;6.43;;
21091;SDS011;10704;42.678;23.288;2022-11-30T03:18:49;8.77;;;5.88;;
21091;SDS011;10704;42.678;23.288;2022-11-30T03:21:15;8.68;;;5.85;;
21091;SDS011;10704;42.678;23.288;2022-11-30T03:23:41;8.07;;;6.05;;
21091;SDS011;10704;42.678;23.288;2022-11-30T03:26:07;9.98;;;5.50;;
21091;SDS011;10704;42.678;23.288;2022-11-30T03:28:33;9.63;;;5.35;;
21091;SDS011;10704;42.678;23.288;2022-11-30T03:31:00;10.40;;;5.40;;
21091;SDS011;10704;42.678;23.288;2022-11-30T03:33:26;10.05;;;6.30;;
21091;SDS011;10704;42.678;23.288;2022-11-30T03:36:02;8.75;;;5.57;;
21091;SDS011;10704;42.678;23.288;2022-11-30T03:38:30;8.30;;;4.82;;
21091;SDS011;10704;42.678;23.288;2022-11-30T03:41:00;6.95;;;4.60;;
21091;SDS011;10704;42.678;23.288;2022-11-30T03:43:27;9.52;;;4.45;;
21091;SDS011;10704;42.678;23.288;2022-11-30T03:45:53;8.60;;;4.60;;
21091;SDS011;10704;42.678;23.288;2022-11-30T03:48:19;6.55;;;4.10;;
21091;SDS011;10704;42.678;23.288;2022-11-30T03:50:45;6.22;;;4.30;;
21091;SDS011;10704;42.678;23.288;2022-11-30T03:53:16;10.98;;;4.68;;
21091;SDS011;10704;42.678;23.288;2022-11-30T03:55:42;9.25;;;4.60;;
21091;SDS011;10704;42.678;23.288;2022-11-30T03:58:08;8.75;;;4.60;;
21091;SDS011;10704;42.678;23.288;2022-11-30T04:00:35;6.15;;;3.78;;
21091;SDS011;10704;42.678;23.288;2022-11-30T04:03:01;7.53;;;4.65;;
21091;SDS011;10704;42.678;23.288;2022-11-30T04:05:27;7.28;;;4.22;;
21091;SDS011;10704;42.678;23.288;2022-11-30T04:07:53;7.53;;;4.40;;
21091;SDS011;10704;42.678;23.288;2022-11-30T04:10:19;5.88;;;3.65;;
21091;SDS011;10704;42.678;23.288;2022-11-30T04:16:32;6.82;;;3.78;;
21091;SDS011;10704;42.678;23.288;2022-11-30T04:18:58;6.88;;;4.10;;
21091;SDS011;10704;42.678;23.288;2022-11-30T04:21:24;6.53;;;4.22;;
21091;SDS011;10704;42.678;23.288;2022-11-30T04:23:49;7.13;;;4.55;;
21091;SDS011;10704;42.678;23.288;2022-11-30T04:26:15;5.85;;;3.88;;
21091;SDS011;10704;42.678;23.288;2022-11-30T04:28:41;8.02;;;3.95;;
21091;SDS011;10704;42.678;23.288;2022-11-30T04:31:08;6.00;;;3.72;;
21091;SDS011;10704;42.678;23.288;2022-11-30T04:33:34;6.32;;;4.22;;
21091;SDS011;10704;42.678;23.288;2022-11-30T04:36:00;9.70;;;4.60;;
21091;SDS011;10704;42.678;23.288;2022-11-30T04:42:15;7.90;;;4.15;;
21091;SDS011;10704;42.678;23.288;2022-11-30T04:44:40;7.20;;;4.60;;
21091;SDS011;10704;42.678;23.288;2022-11-30T04:50:58;7.63;;;4.28;;
21091;SDS011;10704;42.678;23.288;2022-11-30T04:56:10;6.85;;;4.63;;
21091;SDS011;10704;42.678;23.288;2022-11-30T04:58:36;8.02;;;4.97;;
21091;SDS011;10704;42.678;23.288;2022-11-30T05:01:03;7.38;;;4.50;;
21091;SDS011;10704;42.678;23.288;2022-11-30T05:03:29;7.13;;;4.50;;
21091;SDS011;10704;42.678;23.288;2022-11-30T05:05:54;10.15;;;5.22;;
21091;SDS011;10704;42.678;23.288;2022-11-30T05:08:20;7.15;;;4.45;;
21091;SDS011;10704;42.678;23.288;2022-11-30T05:10:50;8.90;;;4.70;;
21091;SDS011;10704;42.678;23.288;2022-11-30T05:13:17;10.85;;;4.97;;
21091;SDS011;10704;42.678;23.288;2022-11-30T05:15:43;8.77;;;4.97;;
21091;SDS011;10704;42.678;23.288;2022-11-30T05:18:11;8.55;;;4.80;;
21091;SDS011;10704;42.678;23.288;2022-11-30T05:20:37;8.43;;;5.35;;
21091;SDS011;10704;42.678;23.288;2022-11-30T05:23:03;11.07;;;4.85;;
21091;SDS011;10704;42.678;23.288;2022-11-30T05:25:29;10.25;;;4.88;;
21091;SDS011;10704;42.678;23.288;2022-11-30T05:27:55;9.00;;;4.40;;
21091;SDS011;10704;42.678;23.288;2022-11-30T05:30:21;7.28;;;4.35;;
21091;SDS011;10704;42.678;23.288;2022-11-30T05:32:46;6.43;;;4.40;;
21091;SDS011;10704;42.678;23.288;2022-11-30T05:35:12;7.07;;;4.00;;
21091;SDS011;10704;42.678;23.288;2022-11-30T05:37:38;6.38;;;4.07;;
21091;SDS011;10704;42.678;23.288;2022-11-30T05:40:04;6.95;;;4.22;;
21091;SDS011;10704;42.678;23.288;2022-11-30T05:42:30;5.38;;;3.08;;
21091;SDS011;10704;42.678;23.288;2022-11-30T05:44:56;6.90;;;3.63;;
21091;SDS011;10704;42.678;23.288;2022-11-30T05:47:22;5.53;;;3.30;;
21091;SDS011;10704;42.678;23.288;2022-11-30T05:49:49;5.38;;;3.25;;
21091;SDS011;10704;42.678;23.288;2022-11-30T05:52:14;5.65;;;3.63;;
21091;SDS011;10704;42.678;23.288;2022-11-30T05:54:40;4.60;;;2.85;;
21091;SDS011;10704;42.678;23.288;2022-11-30T05:57:06;4.65;;;3.22;;
21091;SDS011;10704;42.678;23.288;2022-11-30T05:59:32;7.28;;;3.90;;
21091;SDS011;10704;42.678;23.288;2022-11-30T06:01:58;5.68;;;3.55;;
21091;SDS011;10704;42.678;23.288;2022-11-30T06:04:24;4.35;;;2.97;;
21091;SDS011;10704;42.678;23.288;2022-11-30T06:06:49;4.95;;;2.60;;
21091;SDS011;10704;42.678;23.288;2022-11-30T06:09:19;4.25;;;2.60;;
21091;SDS011;10704;42.678;23.288;2022-11-30T06:11:46;5.40;;;3.03;;
21091;SDS011;10704;42.678;23.288;2022-11-30T06:14:11;6.28;;;3.28;;
21091;SDS011;10704;42.678;23.288;2022-11-30T06:16:38;5.80;;;3.28;;
21091;SDS011;10704;42.678;23.288;2022-11-30T06:19:04;8.43;;;3.25;;
21091;SDS011;10704;42.678;23.288;2022-11-30T06:21:30;6.57;;;3.53;;
21091;SDS011;10704;42.678;23.288;2022-11-30T06:23:55;6.18;;;3.33;;
21091;SDS011;10704;42.678;23.288;2022-11-30T06:26:21;6.45;;;3.33;;
21091;SDS011;10704;42.678;23.288;2022-11-30T06:28:47;5.15;;;3.33;;
21091;SDS011;10704;42.678;23.288;2022-11-30T06:31:13;5.50;;;3.30;;
21091;SDS011;10704;42.678;23.288;2022-11-30T06:33:40;5.32;;;3.40;;
21091;SDS011;10704;42.678;23.288;2022-11-30T06:36:05;6.70;;;4.10;;
21091;SDS011;10704;42.678;23.288;2022-11-30T06:38:31;6.47;;;3.42;;
21091;SDS011;10704;42.678;23.288;2022-11-30T06:41:04;6.88;;;3.13;;
21091;SDS011;10704;42.678;23.288;2022-11-30T06:43:33;5.63;;;3.03;;
21091;SDS011;10704;42.678;23.288;2022-11-30T06:46:00;4.40;;;2.22;;
21091;SDS011;10704;42.678;23.288;2022-11-30T06:48:28;5.15;;;2.35;;
21091;SDS011;10704;42.678;23.288;2022-11-30T06:50:54;3.90;;;2.50;;
21091;SDS011;10704;42.678;23.288;2022-11-30T06:53:20;4.47;;;2.10;;
21091;SDS011;10704;42.678;23.288;2022-11-30T06:55:45;6.72;;;2.70;;
21091;SDS011;10704;42.678;23.288;2022-11-30T06:58:11;4.80;;;2.45;;
21091;SDS011;10704;42.678;23.288;2022-11-30T07:00:37;3.75;;;2.28;;
21091;SDS011;10704;42.678;23.288;2022-11-30T07:03:03;3.78;;;1.95;;
21091;SDS011;10704;42.678;23.288;2022-11-30T07:05:31;5.40;;;2.30;;
21091;SDS011;10704;42.678;23.288;2022-11-30T07:08:00;4.95;;;2.40;;
21091;SDS011;10704;42.678;23.288;2022-11-30T07:10:26;4.88;;;2.70;;
21091;SDS011;10704;42.678;23.288;2022-11-30T07:12:52;5.50;;;2.65;;
21091;SDS011;10704;42.678;23.288;2022-11-30T07:15:18;5.72;;;2.85;;
21091;SDS011;10704;42.678;23.288;2022-11-30T07:17:44;6.63;;;3.00;;
21091;SDS011;10704;42.678;23.288;2022-11-30T07:20:10;4.68;;;2.67;;
21091;SDS011;10704;42.678;23.288;2022-11-30T07:22:35;5.63;;;2.60;;
21091;SDS011;10704;42.678;23.288;2022-11-30T07:25:01;5.55;;;2.55;;
21091;SDS011;10704;42.678;23.288;2022-11-30T07:27:46;4.95;;;2.72;;
21091;SDS011;10704;42.678;23.288;2022-11-30T07:30:11;5.95;;;2.90;;
21091;SDS011;10704;42.678;23.288;2022-11-30T07:32:38;6.55;;;3.13;;
21091;SDS011;10704;42.678;23.288;2022-11-30T07:35:03;6.65;;;3.47;;
21091;SDS011;10704;42.678;23.288;2022-11-30T07:37:29;4.95;;;3.22;;
21091;SDS011;10704;42.678;23.288;2022-11-30T07:39:55;5.35;;;3.00;;
21091;SDS011;10704;42.678;23.288;2022-11-30T07:42:21;6.45;;;3.30;;
21091;SDS011;10704;42.678;23.288;2022-11-30T07:45:06;5.72;;;3.58;;
21091;SDS011;10704;42.678;23.288;2022-11-30T07:47:32;7.05;;;3.70;;
21091;SDS011;10704;42.678;23.288;2022-11-30T07:49:58;10.40;;;5.63;;
21091;SDS011;10704;42.678;23.288;2022-11-30T07:52:24;6.50;;;3.78;;
21091;SDS011;10704;42.678;23.288;2022-11-30T07:54:49;10.07;;;4.28;;
21091;SDS011;10704;42.678;23.288;2022-11-30T07:57:15;6.55;;;3.13;;
21091;SDS011;10704;42.678;23.288;2022-11-30T07:59:41;8.60;;;3.65;;
21091;SDS011;10704;42.678;23.288;2022-11-30T08:02:08;10.15;;;3.75;;
21091;SDS011;10704;42.678;23.288;2022-11-30T08:04:35;7.57;;;2.75;;
21091;SDS011;10704;42.678;23.288;2022-11-30T08:07:00;5.55;;;2.47;;
21091;SDS011;10704;42.678;23.288;2022-11-30T08:09:26;7.10;;;2.50;;
21091;SDS011;10704;42.678;23.288;2022-11-30T08:11:52;5.75;;;2.80;;
21091;SDS011;10704;42.678;23.288;2022-11-30T08:14:18;5.60;;;2.80;;
21091;SDS011;10704;42.678;23.288;2022-11-30T08:16:44;7.28;;;3.00;;
21091;SDS011;10704;42.678;23.288;2022-11-30T08:19:09;6.90;;;3.83;;
21091;SDS011;10704;42.678;23.288;2022-11-30T08:21:35;5.38;;;2.88;;
21091;SDS011;10704;42.678;23.288;2022-11-30T08:24:02;5.22;;;2.83;;
21091;SDS011;10704;42.678;23.288;2022-11-30T08:26:29;4.90;;;2.55;;
21091;SDS011;10704;42.678;23.288;2022-11-30T08:28:56;3.88;;;2.22;;
21091;SDS011;10704;42.678;23.288;2022-11-30T08:34:10;4.05;;;2.25;;
21091;SDS011;10704;42.678;23.288;2022-11-30T08:36:37;4.78;;;2.17;;
21091;SDS011;10704;42.678;23.288;2022-11-30T08:39:04;5.30;;;2.58;;
21091;SDS011;10704;42.678;23.288;2022-11-30T08:41:32;4.13;;;2.03;;
21091;SDS011;10704;42.678;23.288;2022-11-30T08:43:59;4.38;;;2.17;;
21091;SDS011;10704;42.678;23.288;2022-11-30T08:46:26;6.90;;;2.35;;
21091;SDS011;10704;42.678;23.288;2022-11-30T08:48:52;5.60;;;1.80;;
21091;SDS011;10704;42.678;23.288;2022-11-30T08:51:18;4.70;;;2.15;;
21091;SDS011;10704;42.678;23.288;2022-11-30T08:53:45;6.13;;;2.60;;
21091;SDS011;10704;42.678;23.288;2022-11-30T08:56:13;5.90;;;2.38;;
21091;SDS011;10704;42.678;23.288;2022-11-30T08:58:43;4.07;;;1.98;;
21091;SDS011;10704;42.678;23.288;2022-11-30T09:01:11;4.07;;;1.92;;
21091;SDS011;10704;42.678;23.288;2022-11-30T09:03:40;4.35;;;1.92;;
21091;SDS011;10704;42.678;23.288;2022-11-30T09:08:38;6.20;;;2.10;;
21091;SDS011;10704;42.678;23.288;2022-11-30T09:11:12;6.00;;;2.55;;
21091;SDS011;10704;42.678;23.288;2022-11-30T09:13:40;4.88;;;2.38;;
21091;SDS011;10704;42.678;23.288;2022-11-30T09:16:07;4.75;;;2.30;;
21091;SDS011;10704;42.678;23.288;2022-11-30T09:18:34;4.57;;;2.17;;
21091;SDS011;10704;42.678;23.288;2022-11-30T09:21:04;6.82;;;3.60;;
21091;SDS011;10704;42.678;23.288;2022-11-30T09:23:33;5.60;;;2.60;;
21091;SDS011;10704;42.678;23.288;2022-11-30T09:26:00;3.83;;;2.20;;
21091;SDS011;10704;42.678;23.288;2022-11-30T09:28:28;5.18;;;2.03;;
21091;SDS011;10704;42.678;23.288;2022-11-30T09:31:04;4.30;;;1.88;;
21091;SDS011;10704;42.678;23.288;2022-11-30T09:33:38;6.57;;;2.28;;
21091;SDS011;10704;42.678;23.288;2022-11-30T09:36:05;6.88;;;2.00;;
21091;SDS011;10704;42.678;23.288;2022-11-30T09:38:39;2.97;;;1.75;;
21091;SDS011;10704;42.678;23.288;2022-11-30T09:46:24;5.97;;;2.70;;
21091;SDS011;10704;42.678;23.288;2022-11-30T09:49:02;4.75;;;2.42;;
21091;SDS011;10704;42.678;23.288;2022-11-30T09:51:43;3.58;;;2.00;;
21091;SDS011;10704;42.678;23.288;2022-11-30T09:54:12;3.33;;;1.58;;
21091;SDS011;10704;42.678;23.288;2022-11-30T10:00:17;4.90;;;2.35;;
21091;SDS011;10704;42.678;23.288;2022-11-30T10:02:48;4.80;;;2.03;;
21091;SDS011;10704;42.678;23.288;2022-11-30T10:05:15;5.70;;;2.63;;
21091;SDS011;10704;42.678;23.288;2022-11-30T10:08:07;6.28;;;2.85;;
21091;SDS011;10704;42.678;23.288;2022-11-30T10:27:17;5.47;;;2.70;;
21091;SDS011;10704;42.678;23.288;2022-11-30T10:29:53;6.32;;;2.47;;
21091;SDS011;10704;42.678;23.288;2022-11-30T10:32:23;5.75;;;3.03;;
21091;SDS011;10704;42.678;23.288;2022-11-30T10:34:56;5.15;;;2.22;;
21091;SDS011;10704;42.678;23.288;2022-11-30T10:37:32;4.72;;;2.75;;
21091;SDS011;10704;42.678;23.288;2022-11-30T10:40:02;5.07;;;2.58;;
21091;SDS011;10704;42.678;23.288;2022-11-30T10:43:07;2.63;;;1.52;;
21091;SDS011;10704;42.678;23.288;2022-11-30T10:45:50;6.13;;;2.47;;
21091;SDS011;10704;42.678;23.288;2022-11-30T10:50:46;7.80;;;3.30;;
21091;SDS011;10704;42.678;23.288;2022-11-30T10:53:12;4.75;;;1.85;;
21091;SDS011;10704;42.678;23.288;2022-11-30T10:55:40;3.67;;;1.85;;
21091;SDS011;10704;42.678;23.288;2022-11-30T10:58:12;4.45;;;2.10;;
21091;SDS011;10704;42.678;23.288;2022-11-30T11:00:52;6.82;;;2.97;;
21091;SDS011;10704;42.678;23.288;2022-11-30T11:03:26;6.18;;;2.28;;
21091;SDS011;10704;42.678;23.288;2022-11-30T11:06:01;5.13;;;2.00;;
21091;SDS011;10704;42.678;23.288;2022-11-30T11:08:34;4.45;;;2.25;;
21091;SDS011;10704;42.678;23.288;2022-11-30T11:11:00;5.40;;;2.53;;
21091;SDS011;10704;42.678;23.288;2022-11-30T11:13:42;4.10;;;2.15;;
21091;SDS011;10704;42.678;23.288;2022-11-30T11:16:09;7.53;;;2.47;;
21091;SDS011;10704;42.678;23.288;2022-11-30T11:18:50;4.35;;;2.15;;
21091;SDS011;10704;42.678;23.288;2022-11-30T11:21:18;5.30;;;2.33;;
21091;SDS011;10704;42.678;23.288;2022-11-30T11:23:45;4.88;;;2.20;;
21091;SDS011;10704;42.678;23.288;2022-11-30T11:26:15;3.92;;;2.10;;
21091;SDS011;10704;42.678;23.288;2022-11-30T11:28:48;7.25;;;2.65;;
21091;SDS011;10704;42.678;23.288;2022-11-30T11:31:35;6.45;;;2.13;;
21091;SDS011;10704;42.678;23.288;2022-11-30T11:34:07;7.05;;;2.22;;
21091;SDS011;10704;42.678;23.288;2022-11-30T11:37:02;4.30;;;2.30;;
21091;SDS011;10704;42.678;23.288;2022-11-30T11:39:40;8.07;;;2.47;;
21091;SDS011;10704;42.678;23.288;2022-11-30T11:42:11;9.48;;;2.90;;
21091;SDS011;10704;42.678;23.288;2022-11-30T11:44:43;4.40;;;2.40;;
21091;SDS011;10704;42.678;23.288;2022-11-30T11:47:32;6.85;;;3.05;;
21091;SDS011;10704;42.678;23.288;2022-11-30T11:52:36;5.90;;;2.75;;
21091;SDS011;10704;42.678;23.288;2022-11-30T11:55:18;8.05;;;2.92;;
21091;SDS011;10704;42.678;23.288;2022-11-30T11:57:55;7.90;;;2.63;;
21091;SDS011;10704;42.678;23.288;2022-11-30T12:00:24;5.72;;;2.80;;
21091;SDS011;10704;42.678;23.288;2022-11-30T12:05:42;6.43;;;3.30;;
21091;SDS011;10704;42.678;23.288;2022-11-30T12:08:48;6.85;;;2.83;;
21091;SDS011;10704;42.678;23.288;2022-11-30T12:11:16;7.18;;;2.95;;
21091;SDS011;10704;42.678;23.288;2022-11-30T12:13:46;5.38;;;3.20;;
21091;SDS011;10704;42.678;23.288;2022-11-30T12:27:14;4.75;;;1.98;;
21091;SDS011;10704;42.678;23.288;2022-11-30T12:38:47;6.20;;;2.88;;
21091;SDS011;10704;42.678;23.288;2022-11-30T12:41:29;6.18;;;2.45;;
21091;SDS011;10704;42.678;23.288;2022-11-30T12:44:07;7.50;;;2.60;;
21091;SDS011;10704;42.678;23.288;2022-11-30T12:47:19;6.35;;;2.40;;
21091;SDS011;10704;42.678;23.288;2022-11-30T12:55:30;6.57;;;2.80;;
21091;SDS011;10704;42.678;23.288;2022-11-30T13:00:54;5.03;;;2.53;;
21091;SDS011;10704;42.678;23.288;2022-11-30T13:03:56;4.55;;;2.13;;
21091;SDS011;10704;42.678;23.288;2022-11-30T13:06:43;6.22;;;2.38;;
21091;SDS011;10704;42.678;23.288;2022-11-30T13:11:48;5.30;;;2.88;;
21091;SDS011;10704;42.678;23.288;2022-11-30T13:14:20;7.00;;;2.50;;
21091;SDS011;10704;42.678;23.288;2022-11-30T13:16:49;4.88;;;2.47;;
21091;SDS011;10704;42.678;23.288;2022-11-30T13:22:31;6.93;;;2.80;;
21091;SDS011;10704;42.678;23.288;2022-11-30T13:25:14;4.63;;;2.20;;
21091;SDS011;10704;42.678;23.288;2022-11-30T13:27:49;4.35;;;2.35;;
21091;SDS011;10704;42.678;23.288;2022-11-30T13:30:51;3.95;;;2.30;;
21091;SDS011;10704;42.678;23.288;2022-11-30T13:36:03;4.68;;;2.28;;
21091;SDS011;10704;42.678;23.288;2022-11-30T13:38:31;4.78;;;2.15;;
21091;SDS011;10704;42.678;23.288;2022-11-30T13:41:01;6.13;;;3.13;;
21091;SDS011;10704;42.678;23.288;2022-11-30T13:43:29;7.00;;;3.53;;
21091;SDS011;10704;42.678;23.288;2022-11-30T13:48:37;7.03;;;2.50;;
21091;SDS011;10704;42.678;23.288;2022-11-30T13:51:05;6.00;;;2.30;;
21091;SDS011;10704;42.678;23.288;2022-11-30T13:53:34;4.93;;;2.25;;
21091;SDS011;10704;42.678;23.288;2022-11-30T13:56:04;4.72;;;2.33;;
21091;SDS011;10704;42.678;23.288;2022-11-30T13:58:32;6.43;;;2.28;;
21091;SDS011;10704;42.678;23.288;2022-11-30T14:01:00;6.03;;;2.60;;
21091;SDS011;10704;42.678;23.288;2022-11-30T14:03:44;7.75;;;3.63;;
21091;SDS011;10704;42.678;23.288;2022-11-30T14:17:26;8.00;;;2.67;;
21091;SDS011;10704;42.678;23.288;2022-11-30T14:19:57;8.45;;;2.35;;
21091;SDS011;10704;42.678;23.288;2022-11-30T14:22:26;8.43;;;2.75;;
21091;SDS011;10704;42.678;23.288;2022-11-30T14:24:54;7.35;;;2.72;;
21091;SDS011;10704;42.678;23.288;2022-11-30T14:31:11;7.82;;;3.08;;
21091;SDS011;10704;42.678;23.288;2022-11-30T14:33:44;6.70;;;2.53;;
21091;SDS011;10704;42.678;23.288;2022-11-30T14:36:19;4.55;;;2.67;;
21091;SDS011;10704;42.678;23.288;2022-11-30T14:38:47;7.25;;;3.17;;
21091;SDS011;10704;42.678;23.288;2022-11-30T14:41:26;5.05;;;2.35;;
21091;SDS011;10704;42.678;23.288;2022-11-30T14:44:00;4.75;;;2.63;;
21091;SDS011;10704;42.678;23.288;2022-11-30T14:46:31;4.97;;;2.67;;
21091;SDS011;10704;42.678;23.288;2022-11-30T14:49:06;7.88;;;3.33;;
21091;SDS011;10704;42.678;23.288;2022-11-30T14:51:43;5.32;;;2.58;;
21091;SDS011;10704;42.678;23.288;2022-11-30T15:00:56;4.57;;;2.47;;
21091;SDS011;10704;42.678;23.288;2022-11-30T15:03:27;10.60;;;2.75;;
21091;SDS011;10704;42.678;23.288;2022-11-30T15:05:57;5.25;;;2.42;;
21091;SDS011;10704;42.678;23.288;2022-11-30T15:08:28;7.18;;;2.45;;
21091;SDS011;10704;42.678;23.288;2022-11-30T15:11:06;6.05;;;2.53;;
21091;SDS011;10704;42.678;23.288;2022-11-30T15:21:17;6.18;;;2.30;;
21091;SDS011;10704;42.678;23.288;2022-11-30T15:23:56;6.88;;;3.05;;
21091;SDS011;10704;42.678;23.288;2022-11-30T15:26:26;9.10;;;2.88;;
21091;SDS011;10704;42.678;23.288;2022-11-30T15:28:57;8.52;;;2.63;;
21091;SDS011;10704;42.678;23.288;2022-11-30T15:31:25;5.32;;;2.55;;
21091;SDS011;10704;42.678;23.288;2022-11-30T15:34:00;6.45;;;3.10;;
21091;SDS011;10704;42.678;23.288;2022-11-30T15:36:34;6.53;;;2.70;;
21091;SDS011;10704;42.678;23.288;2022-11-30T15:39:03;7.10;;;2.67;;
21091;SDS011;10704;42.678;23.288;2022-11-30T15:41:32;6.07;;;3.47;;
21091;SDS011;10704;42.678;23.288;2022-11-30T15:43:59;8.00;;;3.13;;
21091;SDS011;10704;42.678;23.288;2022-11-30T15:49:02;5.60;;;2.70;;
21091;SDS011;10704;42.678;23.288;2022-11-30T15:51:47;5.10;;;2.90;;
21091;SDS011;10704;42.678;23.288;2022-11-30T15:54:45;4.40;;;2.47;;
21091;SDS011;10704;42.678;23.288;2022-11-30T15:57:16;5.57;;;2.88;;
21091;SDS011;10704;42.678;23.288;2022-11-30T16:00:00;5.65;;;2.50;;
21091;SDS011;10704;42.678;23.288;2022-11-30T16:02:39;5.25;;;2.80;;
21091;SDS011;10704;42.678;23.288;2022-11-30T16:07:38;8.35;;;3.00;;
21091;SDS011;10704;42.678;23.288;2022-11-30T16:10:18;7.82;;;3.65;;
21091;SDS011;10704;42.678;23.288;2022-11-30T16:12:49;6.75;;;3.55;;
21091;SDS011;10704;42.678;23.288;2022-11-30T16:17:48;9.93;;;4.20;;
21091;SDS011;10704;42.678;23.288;2022-11-30T16:20:15;7.68;;;3.65;;
21091;SDS011;10704;42.678;23.288;2022-11-30T16:22:42;6.60;;;3.30;;
21091;SDS011;10704;42.678;23.288;2022-11-30T16:25:13;6.55;;;3.10;;
21091;SDS011;10704;42.678;23.288;2022-11-30T16:27:41;10.40;;;3.72;;
21091;SDS011;10704;42.678;23.288;2022-11-30T16:30:18;7.88;;;3.67;;
21091;SDS011;10704;42.678;23.288;2022-11-30T16:32:45;11.13;;;5.40;;
21091;SDS011;10704;42.678;23.288;2022-11-30T16:35:26;6.18;;;3.63;;
21091;SDS011;10704;42.678;23.288;2022-11-30T16:37:59;5.68;;;2.67;;
21091;SDS011;10704;42.678;23.288;2022-11-30T16:40:25;7.07;;;3.40;;
21091;SDS011;10704;42.678;23.288;2022-11-30T16:42:51;7.80;;;3.88;;
21091;SDS011;10704;42.678;23.288;2022-11-30T16:45:18;8.35;;;4.80;;
21091;SDS011;10704;42.678;23.288;2022-11-30T16:47:45;7.38;;;2.58;;
21091;SDS011;10704;42.678;23.288;2022-11-30T16:50:12;7.38;;;3.50;;
21091;SDS011;10704;42.678;23.288;2022-11-30T16:52:39;6.07;;;3.47;;
21091;SDS011;10704;42.678;23.288;2022-11-30T16:55:19;7.93;;;3.22;;
21091;SDS011;10704;42.678;23.288;2022-11-30T16:57:46;6.55;;;2.72;;
21091;SDS011;10704;42.678;23.288;2022-11-30T17:00:14;7.47;;;3.70;;
21091;SDS011;10704;42.678;23.288;2022-11-30T17:05:29;9.23;;;4.35;;
21091;SDS011;10704;42.678;23.288;2022-11-30T17:07:56;6.32;;;3.30;;
21091;SDS011;10704;42.678;23.288;2022-11-30T17:10:21;6.05;;;3.00;;
21091;SDS011;10704;42.678;23.288;2022-11-30T17:12:47;7.00;;;3.08;;
21091;SDS011;10704;42.678;23.288;2022-11-30T17:15:15;6.60;;;2.67;;
21091;SDS011;10704;42.678;23.288;2022-11-30T17:17:45;7.25;;;3.15;;
21091;SDS011;10704;42.678;23.288;2022-11-30T17:20:12;6.90;;;3.58;;
21091;SDS011;10704;42.678;23.288;2022-11-30T17:22:39;6.72;;;3.28;;
21091;SDS011;10704;42.678;23.288;2022-11-30T17:25:07;7.93;;;2.70;;
21091;SDS011;10704;42.678;23.288;2022-11-30T17:27:38;6.22;;;3.03;;
21091;SDS011;10704;42.678;23.288;2022-11-30T17:30:04;10.45;;;4.20;;